Time;durP1;ratioP1;P1;durP2;ratioP2;P2;SDS_P1;SDS_P2;PMS_P1;PMS_P2;Temp;Humidity;BMP_temperature;BMP_pressure;BME280_temperature;BME280_humidity;BME280_pressure;Samples;Min_cycle;Max_cycle;Signal;HPM_P1;HPM_P2
2023/12/29 00:00:27;;;;;;;11.73;2.40;;;11.60;41.10;;;;;;5053383;28;20379;-71
2023/12/29 00:02:52;;;;;;;6.20;2.10;;;11.70;41.00;;;;;;5071978;28;20383;-70
2023/12/29 00:05:18;;;;;;;7.50;2.13;;;11.60;40.90;;;;;;5073892;28;20395;-73
2023/12/29 00:07:43;;;;;;;8.23;2.20;;;11.60;41.20;;;;;;5059489;28;20388;-70
2023/12/29 00:10:09;;;;;;;7.53;1.92;;;11.60;41.40;;;;;;5077751;28;20426;-71
2023/12/29 00:12:35;;;;;;;5.82;2.40;;;11.60;41.10;;;;;;5060639;28;20414;-71
2023/12/29 00:15:00;;;;;;;7.07;2.40;;;11.70;40.90;;;;;;5076191;28;20449;-74
2023/12/29 00:17:26;;;;;;;11.47;2.80;;;11.70;40.80;;;;;;5052815;28;20399;-70
2023/12/29 00:19:53;;;;;;;8.37;1.87;;;11.70;40.70;;;;;;5070703;28;20489;-72
2023/12/29 00:22:19;;;;;;;9.07;1.90;;;11.70;40.70;;;;;;5070988;28;20938;-70
2023/12/29 00:24:44;;;;;;;7.35;1.98;;;11.70;40.80;;;;;;5052747;28;20384;-72
2023/12/29 00:27:10;;;;;;;7.65;2.05;;;11.70;40.90;;;;;;5070678;28;20376;-70
2023/12/29 00:29:36;;;;;;;5.95;1.70;;;11.70;40.90;;;;;;5070519;28;20387;-72
2023/12/29 00:32:02;;;;;;;6.30;2.10;;;11.70;40.80;;;;;;5070601;28;20383;-71
2023/12/29 00:34:28;;;;;;;6.18;2.17;;;11.70;40.80;;;;;;5070447;28;20445;-72
2023/12/29 00:36:53;;;;;;;7.68;2.00;;;11.70;40.90;;;;;;5070526;28;20387;-70
2023/12/29 00:39:19;;;;;;;10.63;2.10;;;11.70;40.90;;;;;;5070324;28;20399;-73
2023/12/29 00:41:44;;;;;;;6.03;1.90;;;11.70;40.90;;;;;;5070453;28;20885;-71
2023/12/29 00:44:10;;;;;;;8.47;2.00;;;11.80;40.70;;;;;;5071015;28;20428;-69
2023/12/29 00:46:35;;;;;;;6.30;2.00;;;11.80;40.40;;;;;;5070556;28;21131;-71
2023/12/29 00:49:01;;;;;;;5.93;1.87;;;11.70;40.70;;;;;;5070967;28;20464;-73
2023/12/29 00:51:26;;;;;;;8.70;2.10;;;11.70;40.80;;;;;;5070886;28;20823;-71
2023/12/29 00:53:52;;;;;;;7.00;2.00;;;11.70;40.90;;;;;;5073885;28;20435;-70
2023/12/29 00:56:17;;;;;;;8.02;2.00;;;11.70;40.80;;;;;;5074201;28;20384;-71
2023/12/29 00:58:43;;;;;;;8.87;2.20;;;11.80;40.70;;;;;;5074289;28;20494;-71
2023/12/29 01:01:11;;;;;;;5.13;1.70;;;11.80;40.60;;;;;;5074515;28;20384;-71
2023/12/29 01:03:37;;;;;;;8.38;2.28;;;11.80;40.60;;;;;;5074282;28;20376;-72
2023/12/29 01:06:02;;;;;;;9.97;1.90;;;11.80;40.60;;;;;;5074191;28;20425;-71
2023/12/29 01:08:28;;;;;;;9.32;2.05;;;11.80;40.40;;;;;;5075696;28;20396;-72
2023/12/29 01:10:54;;;;;;;10.73;1.50;;;11.70;40.80;;;;;;5080326;28;20380;-72
2023/12/29 01:13:19;;;;;;;6.00;2.20;;;11.70;40.60;;;;;;5090112;28;20403;-74
2023/12/29 01:15:45;;;;;;;9.30;2.40;;;11.70;40.80;;;;;;5060874;28;20384;-70
2023/12/29 01:18:11;;;;;;;9.87;1.67;;;11.80;40.70;;;;;;5074081;28;20413;-71
2023/12/29 01:20:39;;;;;;;12.05;2.22;;;11.70;40.80;;;;;;5073431;28;20884;-74
2023/12/29 01:23:05;;;;;;;8.37;2.33;;;11.80;40.70;;;;;;5073967;28;20399;-73
2023/12/29 01:25:30;;;;;;;13.30;2.45;;;11.80;41.10;;;;;;5073370;28;20842;-71
2023/12/29 01:27:56;;;;;;;5.53;2.22;;;11.80;40.70;;;;;;5073696;28;20446;-73
2023/12/29 01:30:21;;;;;;;11.13;2.50;;;11.70;40.80;;;;;;5073391;28;20386;-70
2023/12/29 01:32:47;;;;;;;7.13;2.00;;;11.70;41.10;;;;;;5073533;28;20375;-70
2023/12/29 01:35:12;;;;;;;9.60;2.50;;;11.70;41.20;;;;;;5073762;28;20394;-71
2023/12/29 01:37:38;;;;;;;8.63;2.30;;;11.80;41.10;;;;;;5073649;28;20395;-73
2023/12/29 01:40:04;;;;;;;8.98;2.45;;;11.80;41.10;;;;;;5059586;28;20412;-72
2023/12/29 01:42:29;;;;;;;10.23;2.70;;;11.80;40.80;;;;;;5079243;28;20447;-72
2023/12/29 01:44:55;;;;;;;10.23;2.13;;;11.80;41.10;;;;;;5076395;28;20428;-72
2023/12/29 01:47:22;;;;;;;8.65;2.33;;;11.70;41.40;;;;;;5057483;28;20376;-72
2023/12/29 01:49:49;;;;;;;7.13;2.15;;;11.70;41.50;;;;;;5076022;28;20392;-70
2023/12/29 01:52:17;;;;;;;7.35;2.10;;;11.70;41.60;;;;;;5083464;28;20878;-71
2023/12/29 01:54:44;;;;;;;11.90;2.10;;;11.70;41.40;;;;;;5089544;28;20388;-72
2023/12/29 01:57:10;;;;;;;11.93;2.40;;;11.70;41.20;;;;;;5087321;28;20437;-71
2023/12/29 01:59:38;;;;;;;9.38;2.40;;;11.80;41.30;;;;;;5068525;28;20399;-71
2023/12/29 02:02:04;;;;;;;8.38;2.65;;;11.70;41.50;;;;;;5086473;28;20384;-73
2023/12/29 02:04:31;;;;;;;9.85;2.45;;;11.80;41.40;;;;;;5085039;28;20437;-72
2023/12/29 02:06:56;;;;;;;11.55;2.50;;;11.70;41.70;;;;;;5085148;28;20447;-72
2023/12/29 02:09:22;;;;;;;8.98;2.40;;;11.70;42.10;;;;;;5085126;28;20395;-75
2023/12/29 02:11:48;;;;;;;7.93;2.30;;;11.70;42.20;;;;;;5085443;28;20395;-72
2023/12/29 02:14:18;;;;;;;12.40;2.63;;;11.70;42.10;;;;;;5090457;28;20396;-72
2023/12/29 02:16:51;;;;;;;10.13;2.60;;;11.70;42.40;;;;;;5081559;28;20392;-71
2023/12/29 02:19:44;;;;;;;7.20;2.53;;;11.70;43.00;;;;;;5056597;28;20438;-72
2023/12/29 02:22:10;;;;;;;14.60;2.30;;;11.70;44.30;;;;;;5073801;28;20387;-71
2023/12/29 02:24:37;;;;;;;7.95;2.85;;;11.60;45.40;;;;;;5073322;28;20376;-72
2023/12/29 02:27:19;;;;;;;9.60;3.13;;;11.50;46.00;;;;;;5073429;28;20386;-74
2023/12/29 02:29:52;;;;;;;11.98;2.90;;;11.50;46.50;;;;;;5075097;28;20375;-72
2023/12/29 02:32:19;;;;;;;13.73;2.50;;;11.40;47.50;;;;;;5078590;28;20383;-71
2023/12/29 02:34:47;;;;;;;8.18;2.60;;;11.30;48.10;;;;;;5075563;28;20427;-72
2023/12/29 02:37:14;;;;;;;10.10;2.80;;;11.30;48.60;;;;;;5057614;28;20897;-73
2023/12/29 02:39:40;;;;;;;11.88;2.72;;;11.30;48.10;;;;;;5122033;22;20990;-71
2023/12/29 02:42:05;;;;;;;13.67;2.60;;;11.30;48.00;;;;;;5113242;28;20385;-71
2023/12/29 02:44:31;;;;;;;12.77;2.70;;;11.40;48.00;;;;;;5097315;28;20401;-71
2023/12/29 02:46:57;;;;;;;12.97;2.73;;;11.30;48.50;;;;;;5119287;28;20368;-71
2023/12/29 02:49:23;;;;;;;12.23;2.90;;;11.40;48.90;;;;;;5119656;28;20384;-70
2023/12/29 02:51:49;;;;;;;13.25;2.97;;;11.30;50.10;;;;;;5119951;28;20886;-71
2023/12/29 02:54:15;;;;;;;9.95;2.70;;;11.20;50.60;;;;;;5117855;28;20475;-71
2023/12/29 02:56:40;;;;;;;6.32;2.55;;;11.20;51.20;;;;;;5116135;28;20381;-71
2023/12/29 02:59:06;;;;;;;11.70;3.23;;;11.20;51.40;;;;;;5114252;28;20479;-71
2023/12/29 03:01:32;;;;;;;14.60;2.93;;;11.10;52.20;;;;;;5112372;28;20384;-71
2023/12/29 03:03:57;;;;;;;11.00;2.70;;;11.10;51.90;;;;;;5112372;28;20743;-71
2023/12/29 03:06:24;;;;;;;11.40;2.60;;;11.20;52.00;;;;;;5112270;28;20462;-71
2023/12/29 03:08:50;;;;;;;10.70;2.58;;;11.10;52.10;;;;;;5112724;28;20387;-71
2023/12/29 03:11:16;;;;;;;11.30;2.60;;;11.10;52.70;;;;;;5112999;28;20380;-71
2023/12/29 03:13:41;;;;;;;12.27;2.60;;;11.10;52.60;;;;;;5112242;28;20407;-71
2023/12/29 03:16:07;;;;;;;14.43;3.23;;;11.10;52.50;;;;;;5111760;28;20697;-69
2023/12/29 03:18:32;;;;;;;11.67;2.97;;;11.10;52.20;;;;;;5111946;28;20939;-71
2023/12/29 03:20:58;;;;;;;10.40;2.20;;;11.20;51.80;;;;;;5111861;28;20464;-71
2023/12/29 03:23:23;;;;;;;9.30;2.85;;;11.20;51.60;;;;;;5111965;28;20376;-73
2023/12/29 03:25:49;;;;;;;9.93;2.30;;;11.20;51.40;;;;;;5111614;28;20380;-71
2023/12/29 03:28:14;;;;;;;12.03;2.90;;;11.20;51.50;;;;;;5093382;28;20446;-70
2023/12/29 03:30:40;;;;;;;10.77;3.00;;;11.20;51.60;;;;;;5094147;28;20388;-74
2023/12/29 03:33:05;;;;;;;14.90;2.50;;;11.20;51.90;;;;;;5114823;28;20479;-71
2023/12/29 03:35:31;;;;;;;10.70;2.90;;;11.20;51.30;;;;;;5113351;28;20770;-72
2023/12/29 03:37:56;;;;;;;11.32;2.58;;;11.20;51.40;;;;;;5112297;28;20724;-73
2023/12/29 03:40:22;;;;;;;12.87;2.80;;;11.20;50.60;;;;;;5111407;28;20731;-71
2023/12/29 03:42:47;;;;;;;11.63;2.40;;;11.20;50.90;;;;;;5111536;28;20734;-71
2023/12/29 03:45:13;;;;;;;8.37;2.53;;;11.20;50.80;;;;;;5111258;28;20391;-71
2023/12/29 03:47:39;;;;;;;6.83;2.03;;;11.20;50.20;;;;;;5111441;28;20384;-71
2023/12/29 03:50:04;;;;;;;11.70;2.33;;;11.30;50.40;;;;;;5111194;28;20444;-72
2023/12/29 03:52:30;;;;;;;13.40;2.60;;;11.30;49.70;;;;;;5111182;28;20461;-69
2023/12/29 03:54:55;;;;;;;7.87;2.10;;;11.30;49.60;;;;;;5111277;28;20387;-71
2023/12/29 03:57:21;;;;;;;8.50;2.40;;;11.40;48.30;;;;;;5111155;28;20796;-71
2023/12/29 03:59:46;;;;;;;10.80;2.35;;;11.50;48.60;;;;;;5110962;28;20457;-70
2023/12/29 04:02:12;;;;;;;10.50;2.55;;;11.50;47.90;;;;;;5111282;28;20392;-72
2023/12/29 04:04:38;;;;;;;8.50;2.53;;;11.50;48.10;;;;;;5111414;28;20433;-72
2023/12/29 04:07:04;;;;;;;8.23;2.20;;;11.40;47.90;;;;;;5110726;28;20372;-72
2023/12/29 04:09:30;;;;;;;7.50;2.15;;;11.50;47.60;;;;;;5110921;28;20785;-72
2023/12/29 04:11:55;;;;;;;7.97;2.30;;;11.50;47.60;;;;;;5110849;28;20436;-71
2023/12/29 04:14:21;;;;;;;8.60;2.60;;;11.50;47.80;;;;;;5110800;28;20380;-71
2023/12/29 04:16:47;;;;;;;9.23;2.30;;;11.60;47.40;;;;;;5110683;28;20392;-71
2023/12/29 04:19:12;;;;;;;11.13;2.38;;;11.50;47.20;;;;;;5110597;28;20462;-71
2023/12/29 04:21:38;;;;;;;8.10;2.03;;;11.60;47.10;;;;;;5092148;28;20391;-72
2023/12/29 04:24:03;;;;;;;11.93;2.10;;;11.60;47.10;;;;;;5111240;28;20372;-70
2023/12/29 04:26:29;;;;;;;12.85;2.90;;;11.60;47.40;;;;;;5111137;28;20465;-70
2023/12/29 04:28:54;;;;;;;8.67;2.50;;;11.60;48.00;;;;;;5117453;28;20408;-72
2023/12/29 04:31:20;;;;;;;9.30;2.20;;;11.50;48.80;;;;;;5117661;28;20388;-70
2023/12/29 04:33:45;;;;;;;10.67;2.40;;;11.40;49.80;;;;;;5117721;28;20485;-71
2023/12/29 04:36:12;;;;;;;6.10;2.13;;;11.20;50.90;;;;;;5117604;28;20388;-70
2023/12/29 04:38:39;;;;;;;10.43;2.47;;;11.20;51.20;;;;;;5117314;28;20408;-71
2023/12/29 04:41:05;;;;;;;5.82;1.92;;;11.20;51.20;;;;;;5099347;28;20776;-70
2023/12/29 04:43:30;;;;;;;7.38;2.30;;;11.20;51.00;;;;;;5117475;28;20441;-70
2023/12/29 04:45:56;;;;;;;6.35;1.75;;;11.30;50.30;;;;;;5117204;28;20433;-70
2023/12/29 04:48:22;;;;;;;14.23;2.70;;;11.30;49.40;;;;;;5117184;28;20388;-70
2023/12/29 04:50:47;;;;;;;10.10;2.00;;;11.30;49.60;;;;;;5117324;28;20383;-70
2023/12/29 04:53:13;;;;;;;10.10;2.70;;;11.30;49.30;;;;;;5117931;28;20431;-71
2023/12/29 04:55:38;;;;;;;9.25;1.70;;;11.30;49.70;;;;;;5117084;28;20407;-70
2023/12/29 04:58:04;;;;;;;6.15;2.20;;;11.30;48.80;;;;;;5117100;28;20733;-71
2023/12/29 05:00:30;;;;;;;9.00;2.25;;;11.30;49.20;;;;;;5099236;28;20448;-71
2023/12/29 05:02:55;;;;;;;7.30;2.30;;;11.30;49.10;;;;;;5117518;28;20740;-71
2023/12/29 05:05:21;;;;;;;9.70;2.03;;;11.30;49.10;;;;;;5117031;28;20403;-71
2023/12/29 05:07:46;;;;;;;7.63;2.00;;;11.30;48.60;;;;;;5117480;28;20376;-71
2023/12/29 05:10:12;;;;;;;9.95;2.40;;;11.30;48.70;;;;;;5117077;28;20388;-71
2023/12/29 05:12:37;;;;;;;10.40;2.55;;;11.20;48.10;;;;;;5118098;28;20384;-71
2023/12/29 05:15:04;;;;;;;10.70;2.50;;;11.30;47.60;;;;;;5119010;28;20384;-70
2023/12/29 05:17:29;;;;;;;7.97;2.40;;;11.30;47.20;;;;;;5118763;28;20874;-71
2023/12/29 05:19:55;;;;;;;10.27;2.53;;;11.30;47.40;;;;;;5118024;28;20392;-71
2023/12/29 05:22:21;;;;;;;10.30;2.10;;;11.30;46.90;;;;;;5119904;28;20971;-71
2023/12/29 05:24:46;;;;;;;7.15;2.00;;;11.30;47.10;;;;;;5117825;28;20738;-71
2023/12/29 05:27:12;;;;;;;12.30;2.10;;;11.30;46.60;;;;;;5116434;28;20485;-71
2023/12/29 05:29:37;;;;;;;10.55;2.30;;;11.40;46.50;;;;;;5116908;28;20746;-71
2023/12/29 05:32:04;;;;;;;7.95;2.40;;;11.30;47.20;;;;;;5116857;28;20504;-71
2023/12/29 05:34:30;;;;;;;12.60;2.20;;;11.30;46.40;;;;;;5098768;28;20766;-70
2023/12/29 05:36:55;;;;;;;12.18;2.60;;;11.30;46.70;;;;;;5116631;28;20555;-72
2023/12/29 05:39:21;;;;;;;10.00;2.05;;;11.30;46.70;;;;;;5114590;28;20485;-72
2023/12/29 05:41:46;;;;;;;11.25;2.45;;;11.30;46.50;;;;;;5113948;28;20376;-71
2023/12/29 05:44:12;;;;;;;10.33;2.60;;;11.20;46.80;;;;;;5113897;28;20430;-70
2023/12/29 05:46:37;;;;;;;9.73;2.60;;;11.20;46.80;;;;;;5114173;28;20780;-68
2023/12/29 05:49:03;;;;;;;7.87;2.47;;;11.10;47.20;;;;;;5114204;28;20493;-71
2023/12/29 05:51:28;;;;;;;8.18;2.40;;;11.10;47.20;;;;;;5114272;28;20746;-70
2023/12/29 05:53:54;;;;;;;11.30;2.30;;;11.00;47.30;;;;;;5122110;28;20758;-70
2023/12/29 05:56:20;;;;;;;9.77;2.43;;;11.10;46.80;;;;;;5126183;28;20384;-68
2023/12/29 05:58:45;;;;;;;10.48;2.50;;;11.10;46.80;;;;;;5124664;28;20400;-69
2023/12/29 06:01:11;;;;;;;9.23;2.30;;;11.00;47.30;;;;;;5121597;28;20388;-71
2023/12/29 06:03:37;;;;;;;11.23;2.10;;;11.00;47.10;;;;;;5113422;28;20711;-71
2023/12/29 06:06:03;;;;;;;14.02;2.22;;;11.00;46.90;;;;;;5112837;28;20445;-70
2023/12/29 06:08:28;;;;;;;11.57;2.15;;;10.90;47.00;;;;;;5113156;28;20411;-71
2023/12/29 06:10:54;;;;;;;12.63;2.70;;;10.90;47.30;;;;;;5113547;28;20850;-71
2023/12/29 06:13:20;;;;;;;9.00;1.90;;;10.80;47.40;;;;;;5096273;28;20456;-71
2023/12/29 06:15:45;;;;;;;8.23;2.30;;;10.80;47.70;;;;;;5101189;28;20380;-71
2023/12/29 06:18:11;;;;;;;11.57;2.50;;;10.70;48.30;;;;;;5127038;28;20383;-71
2023/12/29 06:20:36;;;;;;;5.93;1.87;;;10.80;47.90;;;;;;5124891;28;20381;-71
2023/12/29 06:23:02;;;;;;;8.80;2.67;;;10.90;48.00;;;;;;5124175;28;20757;-71
2023/12/29 06:25:28;;;;;;;14.57;2.10;;;10.80;47.80;;;;;;5119861;28;20384;-72
2023/12/29 06:27:54;;;;;;;5.57;2.10;;;10.90;47.90;;;;;;5112607;28;20459;-72
2023/12/29 06:30:20;;;;;;;11.23;2.40;;;11.00;47.60;;;;;;5112806;28;20843;-71
2023/12/29 06:32:45;;;;;;;7.95;2.10;;;10.90;47.70;;;;;;5113476;28;20535;-70
2023/12/29 06:35:11;;;;;;;7.97;2.35;;;11.00;47.40;;;;;;5112785;28;20412;-73
2023/12/29 06:37:41;;;;;;;7.65;2.10;;;11.10;47.20;;;;;;5112291;28;20376;-70
2023/12/29 06:40:07;;;;;;;9.60;2.33;;;11.10;47.90;;;;;;5112720;28;20396;-72
2023/12/29 06:42:32;;;;;;;7.38;2.20;;;11.20;46.50;;;;;;5112418;28;20937;-71
2023/12/29 06:44:58;;;;;;;13.47;2.37;;;11.20;46.30;;;;;;5112359;28;20509;-71
2023/12/29 06:47:24;;;;;;;13.05;2.70;;;11.30;46.10;;;;;;5111986;28;20444;-71
2023/12/29 06:49:50;;;;;;;14.57;2.30;;;11.20;46.00;;;;;;5107355;28;20389;-72
2023/12/29 06:52:16;;;;;;;6.72;2.35;;;11.20;46.20;;;;;;5111353;28;20763;-70
2023/12/29 06:54:41;;;;;;;10.25;2.13;;;11.20;46.10;;;;;;5112235;28;20381;-73
2023/12/29 06:57:07;;;;;;;11.60;3.07;;;11.30;45.80;;;;;;5112201;28;20380;-72
2023/12/29 06:59:33;;;;;;;13.80;2.43;;;11.30;45.70;;;;;;5093695;28;20438;-71
2023/12/29 07:01:58;;;;;;;11.90;2.90;;;11.30;46.00;;;;;;5112671;28;20396;-71
2023/12/29 07:04:24;;;;;;;17.93;2.40;;;11.40;45.40;;;;;;5100291;28;20432;-72
2023/12/29 07:06:49;;;;;;;10.98;2.20;;;11.30;45.70;;;;;;5091438;28;20442;-72
2023/12/29 07:09:15;;;;;;;8.55;1.98;;;11.30;45.80;;;;;;5091398;28;20394;-72
2023/12/29 07:11:40;;;;;;;7.15;1.92;;;11.30;45.70;;;;;;5095177;28;20390;-72
2023/12/29 07:14:06;;;;;;;7.73;1.90;;;11.30;45.90;;;;;;5111443;28;20377;-72
2023/12/29 07:16:31;;;;;;;8.07;2.33;;;11.30;45.90;;;;;;5105005;28;20839;-72
2023/12/29 07:18:57;;;;;;;12.43;2.30;;;11.40;46.20;;;;;;5090838;28;20404;-73
2023/12/29 07:21:22;;;;;;;8.85;2.28;;;11.30;46.40;;;;;;5100154;28;20378;-73
2023/12/29 07:23:48;;;;;;;10.23;1.90;;;11.30;46.70;;;;;;5089012;28;20856;-73
2023/12/29 07:26:14;;;;;;;14.10;2.30;;;11.30;46.70;;;;;;5103307;28;20814;-73
2023/12/29 07:28:39;;;;;;;8.50;2.10;;;11.30;46.80;;;;;;5108966;28;20380;-72
2023/12/29 07:31:05;;;;;;;8.93;2.40;;;11.30;46.80;;;;;;5108888;28;20380;-72
2023/12/29 07:33:30;;;;;;;11.33;2.70;;;11.40;46.90;;;;;;5109217;28;20496;-73
2023/12/29 07:35:56;;;;;;;14.00;2.58;;;11.30;47.10;;;;;;5109196;28;20381;-71
2023/12/29 07:38:21;;;;;;;10.75;2.72;;;11.30;47.70;;;;;;5094899;28;20505;-71
2023/12/29 07:40:50;;;;;;;8.10;1.97;;;11.30;48.60;;;;;;5088637;28;20385;-72
2023/12/29 07:43:16;;;;;;;8.18;2.05;;;11.30;48.90;;;;;;5088299;28;20374;-73
2023/12/29 07:45:43;;;;;;;7.47;2.20;;;11.30;49.20;;;;;;5088548;28;20389;-72
2023/12/29 07:48:08;;;;;;;10.30;2.10;;;11.30;49.30;;;;;;5088115;28;20374;-74
2023/12/29 07:50:34;;;;;;;13.10;2.43;;;11.30;50.00;;;;;;5088291;28;20382;-71
2023/12/29 07:53:02;;;;;;;9.03;2.00;;;11.30;50.60;;;;;;5088348;28;20378;-73
2023/12/29 07:55:31;;;;;;;6.55;1.90;;;11.20;51.50;;;;;;5094207;28;20405;-72
2023/12/29 07:57:56;;;;;;;8.45;2.50;;;11.20;52.40;;;;;;5090618;28;20382;-72
2023/12/29 08:00:23;;;;;;;7.67;2.10;;;11.10;53.70;;;;;;5109586;28;20417;-71
2023/12/29 08:02:49;;;;;;;12.95;2.38;;;11.10;54.40;;;;;;5094210;28;20697;-72
2023/12/29 08:05:15;;;;;;;12.40;2.13;;;11.10;55.10;;;;;;5090291;28;20390;-74
2023/12/29 08:07:41;;;;;;;12.90;2.30;;;11.00;55.60;;;;;;5088601;28;20434;-72
2023/12/29 08:10:07;;;;;;;9.67;2.30;;;11.00;56.20;;;;;;5089576;28;20390;-72
2023/12/29 08:12:33;;;;;;;8.88;1.90;;;11.00;56.50;;;;;;5089022;28;20390;-72
2023/12/29 08:15:00;;;;;;;8.95;2.38;;;10.90;57.30;;;;;;5088588;28;20396;-71
2023/12/29 08:17:26;;;;;;;8.02;2.10;;;11.00;58.10;;;;;;5095824;28;20484;-73
2023/12/29 08:19:51;;;;;;;6.22;2.10;;;10.90;58.60;;;;;;5106669;28;20906;-73
2023/12/29 08:22:17;;;;;;;8.30;2.50;;;10.90;60.10;;;;;;5086598;28;20511;-74
2023/12/29 08:24:45;;;;;;;6.80;2.58;;;10.90;60.50;;;;;;5097820;28;20403;-72
2023/12/29 08:27:14;;;;;;;6.93;2.10;;;10.80;61.30;;;;;;5072259;28;20386;-73
2023/12/29 08:29:40;;;;;;;8.85;2.00;;;10.80;62.60;;;;;;5092684;28;20387;-74
2023/12/29 08:32:07;;;;;;;6.60;1.95;;;10.80;62.70;;;;;;5108626;28;20388;-73
2023/12/29 08:34:34;;;;;;;6.53;2.20;;;10.80;63.50;;;;;;5102921;28;21095;-72
2023/12/29 08:36:59;;;;;;;13.95;2.67;;;10.70;64.70;;;;;;5073615;28;20716;-73
2023/12/29 08:39:25;;;;;;;6.27;2.60;;;10.70;66.50;;;;;;5107405;22;20446;-72
2023/12/29 08:41:50;;;;;;;8.87;1.90;;;10.70;66.40;;;;;;5085809;28;20455;-72
2023/12/29 08:44:16;;;;;;;5.82;1.80;;;10.60;68.20;;;;;;5085607;28;20380;-73
2023/12/29 08:46:42;;;;;;;7.07;2.33;;;10.70;69.00;;;;;;5086760;28;20384;-72
2023/12/29 08:49:07;;;;;;;6.47;1.83;;;10.70;69.80;;;;;;5082876;28;20376;-71
2023/12/29 08:51:33;;;;;;;4.30;2.20;;;10.70;70.00;;;;;;5083465;28;20395;-72
2023/12/29 08:53:59;;;;;;;8.80;2.40;;;10.70;69.90;;;;;;5069106;28;20398;-72
2023/12/29 08:56:25;;;;;;;9.13;2.10;;;10.80;69.80;;;;;;5084753;28;20387;-72
2023/12/29 08:58:51;;;;;;;4.80;1.70;;;10.70;69.70;;;;;;5079490;28;20415;-73
2023/12/29 09:01:16;;;;;;;8.25;1.60;;;10.70;69.40;;;;;;5072217;28;20413;-72
2023/12/29 09:03:42;;;;;;;3.13;1.33;;;10.70;70.20;;;;;;5070751;28;20426;-74
2023/12/29 09:06:08;;;;;;;6.13;1.40;;;10.80;70.10;;;;;;5070780;28;20457;-71
2023/12/29 09:08:34;;;;;;;5.88;1.70;;;10.70;70.40;;;;;;5070697;28;20394;-71
2023/12/29 09:11:00;;;;;;;5.55;2.28;;;10.70;71.10;;;;;;5075427;28;20387;-72
2023/12/29 09:13:26;;;;;;;6.72;1.50;;;10.70;71.60;;;;;;5083611;28;20387;-73
2023/12/29 09:15:53;;;;;;;2.85;1.30;;;10.80;71.10;;;;;;5082816;28;20407;-71
2023/12/29 09:18:19;;;;;;;4.47;1.40;;;10.70;71.80;;;;;;5073661;28;20399;-73
2023/12/29 09:20:44;;;;;;;3.97;1.40;;;10.80;72.30;;;;;;5073432;28;20386;-71
2023/12/29 09:23:10;;;;;;;5.77;1.50;;;10.90;70.80;;;;;;5074007;28;20759;-71
2023/12/29 09:25:35;;;;;;;4.30;1.60;;;10.90;70.80;;;;;;5073204;28;20973;-73
2023/12/29 09:28:01;;;;;;;4.73;1.23;;;10.90;70.50;;;;;;5073675;28;20874;-72
2023/12/29 09:30:26;;;;;;;6.50;1.90;;;11.00;69.80;;;;;;5073386;28;20376;-71
2023/12/29 09:32:52;;;;;;;5.30;1.77;;;11.00;70.10;;;;;;5073123;28;20745;-72
2023/12/29 09:35:18;;;;;;;3.45;1.65;;;11.10;69.70;;;;;;5073188;28;20460;-74
2023/12/29 09:37:43;;;;;;;7.47;1.83;;;11.10;68.70;;;;;;5073260;28;20387;-73
2023/12/29 09:40:10;;;;;;;3.60;1.40;;;11.30;68.00;;;;;;5073043;28;20422;-72
2023/12/29 09:42:38;;;;;;;3.05;1.80;;;11.20;68.50;;;;;;5073192;28;20375;-72
2023/12/29 09:45:09;;;;;;;7.05;1.70;;;11.10;70.00;;;;;;5073393;28;20410;-74
2023/12/29 09:47:41;;;;;;;4.80;1.60;;;11.10;70.60;;;;;;5073213;28;20386;-71
2023/12/29 09:50:12;;;;;;;4.47;1.67;;;11.10;72.50;;;;;;5055467;28;20449;-73
2023/12/29 09:52:39;;;;;;;4.38;1.40;;;10.90;74.70;;;;;;5072929;28;20384;-73
2023/12/29 09:55:12;;;;;;;6.80;1.70;;;11.00;74.80;;;;;;5073084;28;20893;-73
2023/12/29 09:57:38;;;;;;;5.35;1.88;;;10.90;76.80;;;;;;5073293;28;20407;-71
2023/12/29 10:00:04;;;;;;;8.50;2.30;;;10.80;78.70;;;;;;5072956;28;20488;-71
2023/12/29 10:02:31;;;;;;;5.90;1.90;;;10.80;79.90;;;;;;5073570;28;20523;-71
2023/12/29 10:04:56;;;;;;;4.38;1.55;;;10.70;80.80;;;;;;5073638;28;20372;-73
2023/12/29 10:07:26;;;;;;;3.88;1.92;;;10.70;81.60;;;;;;5073287;28;20518;-73
2023/12/29 10:09:57;;;;;;;6.18;2.20;;;10.70;82.20;;;;;;5055105;28;20402;-71
2023/12/29 10:12:24;;;;;;;3.60;1.83;;;10.80;81.80;;;;;;5073515;28;20376;-73
2023/12/29 10:15:15;;;;;;;5.45;2.60;;;10.80;80.40;;;;;;5073944;28;20407;-73
2023/12/29 10:18:11;;;;;;;5.78;2.00;;;10.90;79.70;;;;;;5074079;28;20420;-72
2023/12/29 10:20:50;;;;;;;4.57;2.08;;;10.90;78.20;;;;;;5074364;28;20408;-72
2023/12/29 10:23:43;;;;;;;4.38;1.95;;;10.90;79.10;;;;;;5073725;28;20437;-72
2023/12/29 10:26:11;;;;;;;5.43;2.33;;;10.90;81.60;;;;;;5072734;28;20912;-72
2023/12/29 10:28:37;;;;;;;5.47;2.10;;;10.80;82.00;;;;;;5073408;28;20391;-71
2023/12/29 10:31:04;;;;;;;5.40;2.20;;;10.90;80.90;;;;;;5075090;28;20496;-73
2023/12/29 10:33:32;;;;;;;6.57;1.77;;;10.90;80.50;;;;;;5074046;28;20459;-72
2023/12/29 10:36:02;;;;;;;6.22;1.80;;;10.90;80.50;;;;;;5073645;28;20395;-71
2023/12/29 10:38:27;;;;;;;6.20;2.05;;;11.00;80.30;;;;;;5073309;28;20816;-72
2023/12/29 10:40:53;;;;;;;7.87;1.90;;;11.00;80.50;;;;;;5073196;28;20384;-71
2023/12/29 10:43:23;;;;;;;9.53;2.90;;;11.10;77.90;;;;;;5072464;28;20380;-73
2023/12/29 10:45:49;;;;;;;4.80;2.20;;;11.10;80.20;;;;;;5071951;28;20392;-72
2023/12/29 10:48:24;;;;;;;5.00;2.77;;;11.20;80.10;;;;;;5072020;28;20462;-72
2023/12/29 10:50:50;;;;;;;8.45;2.00;;;11.30;79.10;;;;;;5072357;28;20387;-73
2023/12/29 10:53:19;;;;;;;6.40;2.65;;;11.30;78.30;;;;;;5072565;28;20696;-71
2023/12/29 10:55:44;;;;;;;4.68;2.40;;;11.30;76.90;;;;;;5071697;28;20394;-73
2023/12/29 10:58:10;;;;;;;7.43;2.08;;;11.30;77.20;;;;;;5071647;28;20391;-72
2023/12/29 11:00:36;;;;;;;15.13;5.68;;;11.40;76.60;;;;;;5054006;28;20379;-72
2023/12/29 11:03:02;;;;;;;11.98;2.97;;;11.40;77.80;;;;;;5071985;28;20387;-74
2023/12/29 11:05:27;;;;;;;6.93;2.87;;;11.60;75.10;;;;;;5053959;28;20455;-72
2023/12/29 11:07:54;;;;;;;6.18;3.25;;;11.70;72.50;;;;;;5071866;28;20810;-73
2023/12/29 11:10:21;;;;;;;8.07;2.87;;;11.70;72.50;;;;;;5072216;28;20827;-71
2023/12/29 11:12:48;;;;;;;8.48;2.88;;;11.80;70.90;;;;;;5072202;28;20445;-73
2023/12/29 11:15:15;;;;;;;8.57;2.77;;;11.90;68.20;;;;;;5071930;28;20933;-72
2023/12/29 11:17:49;;;;;;;4.63;2.30;;;11.90;66.40;;;;;;5071501;28;20407;-72
2023/12/29 11:20:16;;;;;;;7.75;2.30;;;12.00;66.50;;;;;;5071537;28;20404;-73
2023/12/29 11:22:43;;;;;;;5.07;2.30;;;12.00;65.70;;;;;;5071832;28;20714;-72
2023/12/29 11:25:12;;;;;;;7.45;1.70;;;12.00;64.60;;;;;;5071578;28;20884;-72
2023/12/29 11:27:38;;;;;;;7.30;2.30;;;12.10;63.20;;;;;;5071570;28;20739;-72
2023/12/29 11:30:05;;;;;;;3.63;2.10;;;12.10;63.00;;;;;;5072003;28;20390;-71
2023/12/29 11:32:58;;;;;;;6.95;1.80;;;12.20;62.80;;;;;;5071894;28;20437;-70
2023/12/29 11:35:29;;;;;;;7.47;2.30;;;12.20;61.80;;;;;;5071063;28;20391;-72
2023/12/29 11:38:29;;;;;;;4.30;2.10;;;12.20;62.40;;;;;;5067967;28;20797;-71
2023/12/29 11:41:19;;;;;;;9.73;1.90;;;12.30;60.70;;;;;;5064667;28;21470;-71
2023/12/29 11:43:45;;;;;;;7.88;2.00;;;12.30;61.70;;;;;;5067072;28;20391;-72
2023/12/29 11:46:34;;;;;;;6.03;2.20;;;12.20;62.70;;;;;;5068642;28;20395;-70
2023/12/29 11:49:04;;;;;;;9.70;2.70;;;12.10;63.20;;;;;;5068350;28;20398;-70
2023/12/29 11:51:40;;;;;;;7.60;2.70;;;12.00;66.30;;;;;;5069142;28;20398;-72
2023/12/29 11:54:09;;;;;;;5.00;2.35;;;11.90;68.30;;;;;;5050920;28;20399;-73
2023/12/29 11:56:36;;;;;;;5.70;2.00;;;11.70;71.10;;;;;;5068823;28;20551;-72
2023/12/29 11:59:18;;;;;;;5.80;2.17;;;11.60;72.20;;;;;;5068566;28;20411;-72
2023/12/29 12:01:57;;;;;;;7.13;2.33;;;11.50;74.50;;;;;;5068986;28;20852;-73
2023/12/29 12:04:43;;;;;;;13.50;3.00;;;11.60;75.20;;;;;;5068863;28;20371;-72
2023/12/29 12:07:31;;;;;;;6.90;2.50;;;11.60;75.80;;;;;;5068276;28;20379;-71
2023/12/29 12:10:30;;;;;;;7.40;2.33;;;11.60;75.30;;;;;;5063742;28;20445;-71
2023/12/29 12:12:58;;;;;;;6.72;2.28;;;11.60;74.60;;;;;;5067334;28;20395;-73
2023/12/29 12:15:29;;;;;;;5.27;1.40;;;11.50;70.70;;;;;;5069906;28;20422;-71
2023/12/29 12:18:07;;;;;;;3.87;1.00;;;11.40;62.80;;;;;;5051712;28;20793;-71
2023/12/29 12:20:34;;;;;;;3.20;1.30;;;11.30;60.80;;;;;;5071348;28;20400;-74
2023/12/29 12:23:02;;;;;;;3.95;1.10;;;11.00;63.00;;;;;;5071798;28;20906;-73
2023/12/29 12:25:30;;;;;;;1.92;1.05;;;10.80;66.30;;;;;;5071529;28;20462;-73
2023/12/29 12:27:56;;;;;;;3.07;1.63;;;10.70;69.70;;;;;;5070446;28;20410;-74
2023/12/29 12:30:22;;;;;;;5.85;1.23;;;10.70;72.60;;;;;;5070710;28;20742;-74
2023/12/29 12:32:58;;;;;;;4.13;1.38;;;10.70;73.70;;;;;;5070727;28;20380;-70
2023/12/29 12:35:26;;;;;;;4.72;2.08;;;10.80;75.40;;;;;;5051355;28;20401;-70
2023/12/29 12:38:12;;;;;;;5.32;1.90;;;10.90;76.10;;;;;;5050711;28;20400;-72
2023/12/29 12:40:38;;;;;;;9.40;2.57;;;11.00;75.70;;;;;;5051179;28;20393;-73
2023/12/29 12:43:04;;;;;;;6.63;2.10;;;11.20;76.40;;;;;;5050557;28;20871;-71